Time;durP1;ratioP1;P1;durP2;ratioP2;P2;SDS_P1;SDS_P2;PMS_P1;PMS_P2;Temp;Humidity;BMP_temperature;BMP_pressure;BME280_temperature;BME280_humidity;BME280_pressure;Samples;Min_cycle;Max_cycle;Signal;HPM_P1;HPM_P2
2023/08/03 00:00:58;;;;;;;2.80;1.80;;;21.20;98.00;;;;;;4995481;28;20467;-73
2023/08/03 00:03:26;;;;;;;1.80;1.70;;;21.20;98.00;;;;;;4995067;28;20539;-73
2023/08/03 00:05:53;;;;;;;2.17;1.97;;;21.20;98.00;;;;;;4997745;28;20414;-73
2023/08/03 00:08:19;;;;;;;2.13;1.93;;;21.20;98.10;;;;;;5014363;28;20453;-73
2023/08/03 00:10:47;;;;;;;2.20;2.00;;;21.20;98.00;;;;;;4981133;28;21293;-73
2023/08/03 00:13:13;;;;;;;1.80;1.70;;;21.20;98.10;;;;;;5010188;28;20546;-73
2023/08/03 00:15:42;;;;;;;3.10;1.83;;;21.20;98.00;;;;;;5014113;28;20425;-73
2023/08/03 00:18:12;;;;;;;2.10;1.90;;;21.20;98.00;;;;;;5033473;28;20450;-73
2023/08/03 00:20:40;;;;;;;2.60;1.70;;;21.20;98.00;;;;;;5019002;28;20479;-74
2023/08/03 00:23:08;;;;;;;4.67;2.03;;;21.20;98.00;;;;;;5011794;28;20473;-74
2023/08/03 00:25:34;;;;;;;3.23;1.90;;;21.10;97.90;;;;;;5029785;28;20533;-74
2023/08/03 00:28:05;;;;;;;3.50;1.70;;;21.10;97.90;;;;;;4997156;28;20478;-72
2023/08/03 00:30:33;;;;;;;2.43;1.87;;;21.10;97.90;;;;;;4987806;28;20210;-71
2023/08/03 00:33:00;;;;;;;2.43;2.10;;;21.10;97.90;;;;;;4997676;28;20449;-71
2023/08/03 00:35:32;;;;;;;3.17;1.70;;;21.10;97.80;;;;;;4996963;28;20910;-73
2023/08/03 00:37:58;;;;;;;1.93;1.80;;;21.10;97.70;;;;;;4999216;28;20416;-73
2023/08/03 00:40:24;;;;;;;2.00;1.80;;;21.10;97.70;;;;;;4986186;28;20449;-73
2023/08/03 00:42:50;;;;;;;1.93;1.73;;;21.10;97.70;;;;;;4996365;28;20450;-72
2023/08/03 00:45:16;;;;;;;2.20;1.60;;;21.10;97.70;;;;;;4996913;28;20440;-73
2023/08/03 00:47:42;;;;;;;1.90;1.80;;;21.10;97.70;;;;;;4981020;28;20180;-73
2023/08/03 00:50:08;;;;;;;2.77;2.07;;;21.00;97.70;;;;;;5007348;28;20979;-73
2023/08/03 00:52:37;;;;;;;2.03;1.80;;;21.00;97.70;;;;;;4998297;28;20545;-73
2023/08/03 00:55:03;;;;;;;1.70;1.60;;;21.00;97.70;;;;;;4996570;28;20450;-73
2023/08/03 00:57:32;;;;;;;2.80;1.90;;;21.10;98.10;;;;;;4980511;28;20917;-73
2023/08/03 01:00:00;;;;;;;2.33;1.97;;;21.00;97.80;;;;;;4989553;28;21165;-73
2023/08/03 01:02:29;;;;;;;1.50;1.40;;;21.00;97.80;;;;;;4983461;28;20589;-73
2023/08/03 01:04:54;;;;;;;2.10;1.90;;;21.00;97.90;;;;;;4960873;28;20434;-72
2023/08/03 01:07:26;;;;;;;2.17;1.83;;;21.00;98.00;;;;;;4960904;28;20443;-73
2023/08/03 01:09:52;;;;;;;3.77;2.10;;;21.00;98.10;;;;;;5001487;28;20443;-73
2023/08/03 01:12:18;;;;;;;2.00;1.80;;;21.00;98.20;;;;;;5000275;28;20422;-73
2023/08/03 01:14:45;;;;;;;2.50;2.20;;;21.00;98.30;;;;;;4991090;28;20427;-73
2023/08/03 01:17:13;;;;;;;2.80;1.90;;;21.00;98.40;;;;;;4994468;28;20498;-73
2023/08/03 01:19:44;;;;;;;2.37;1.93;;;20.90;98.40;;;;;;4990019;28;20495;-73
2023/08/03 01:22:16;;;;;;;2.70;2.17;;;21.00;98.50;;;;;;4999074;28;21079;-73
2023/08/03 01:24:42;;;;;;;4.40;1.90;;;20.90;98.50;;;;;;4993912;28;20404;-73
2023/08/03 01:27:12;;;;;;;2.40;1.83;;;20.90;98.60;;;;;;4981424;28;20854;-73
2023/08/03 01:29:41;;;;;;;3.17;1.70;;;20.90;98.60;;;;;;4988638;28;20450;-73
2023/08/03 01:32:09;;;;;;;1.87;1.70;;;20.90;98.70;;;;;;5008356;28;20972;-73
2023/08/03 01:34:37;;;;;;;2.10;1.70;;;20.90;98.70;;;;;;4979188;28;20416;-73
2023/08/03 01:37:04;;;;;;;3.07;2.27;;;20.90;98.70;;;;;;4980420;28;20419;-73
2023/08/03 01:39:31;;;;;;;2.23;1.80;;;20.90;98.80;;;;;;5003904;28;20449;-73
2023/08/03 01:42:00;;;;;;;1.93;1.60;;;20.90;98.80;;;;;;5032575;28;20420;-73
2023/08/03 01:44:28;;;;;;;2.70;1.93;;;20.90;98.80;;;;;;5014643;28;20457;-73
2023/08/03 01:46:57;;;;;;;2.10;1.90;;;20.90;98.80;;;;;;4979105;28;20487;-73
2023/08/03 01:49:28;;;;;;;2.00;1.80;;;20.90;98.80;;;;;;5002111;28;20445;-73
2023/08/03 01:51:55;;;;;;;1.83;1.73;;;20.80;98.80;;;;;;5014827;28;20443;-73
2023/08/03 01:54:23;;;;;;;2.70;1.97;;;20.80;98.80;;;;;;4978269;28;20461;-73
2023/08/03 01:56:52;;;;;;;2.83;2.53;;;20.80;98.80;;;;;;4975736;28;20765;-73
2023/08/03 01:59:22;;;;;;;2.80;2.23;;;20.80;98.90;;;;;;4971972;28;20442;-73
2023/08/03 02:01:53;;;;;;;3.60;2.87;;;20.80;98.80;;;;;;4994124;28;20641;-73
2023/08/03 02:04:19;;;;;;;2.63;1.90;;;20.80;98.80;;;;;;5010754;28;20813;-73
2023/08/03 02:06:49;;;;;;;2.40;2.20;;;20.80;98.80;;;;;;5015139;28;20411;-73
2023/08/03 02:09:15;;;;;;;2.27;2.07;;;20.80;98.80;;;;;;4989452;28;20562;-73
2023/08/03 02:11:41;;;;;;;7.37;2.60;;;20.80;98.90;;;;;;4975478;28;20487;-73
2023/08/03 02:14:12;;;;;;;2.40;2.20;;;20.80;98.90;;;;;;5005904;28;21211;-73
2023/08/03 02:16:41;;;;;;;3.00;2.10;;;20.80;98.90;;;;;;5010844;28;20468;-73
2023/08/03 02:19:09;;;;;;;2.93;2.20;;;20.80;98.90;;;;;;4978683;28;20512;-73
2023/08/03 02:21:37;;;;;;;3.53;2.83;;;20.80;98.90;;;;;;4995540;28;20429;-73
2023/08/03 02:24:03;;;;;;;3.03;2.20;;;20.80;98.90;;;;;;4988655;28;20464;-73
2023/08/03 02:26:29;;;;;;;2.03;1.93;;;20.80;98.90;;;;;;5007363;28;20200;-73
2023/08/03 02:29:02;;;;;;;5.67;2.20;;;20.80;99.00;;;;;;4995071;28;21042;-73
2023/08/03 02:31:28;;;;;;;4.07;2.33;;;20.80;99.00;;;;;;4994553;28;20425;-73
2023/08/03 02:34:01;;;;;;;3.10;2.27;;;20.80;99.10;;;;;;5003194;28;20419;-73
2023/08/03 02:36:35;;;;;;;2.80;2.53;;;20.70;99.00;;;;;;5024149;28;20987;-73
2023/08/03 02:39:05;;;;;;;3.20;2.87;;;20.80;99.00;;;;;;4978574;28;20438;-73
2023/08/03 02:41:38;;;;;;;5.50;2.87;;;20.70;99.00;;;;;;5075588;22;20519;-72
2023/08/03 02:44:07;;;;;;;4.87;2.70;;;20.70;98.90;;;;;;4959775;28;20992;-72
2023/08/03 02:46:40;;;;;;;3.00;2.63;;;20.70;98.90;;;;;;4986118;28;20428;-72
2023/08/03 02:49:10;;;;;;;5.67;3.40;;;20.70;99.00;;;;;;4974474;28;20427;-72
2023/08/03 02:51:37;;;;;;;3.83;2.47;;;20.70;98.90;;;;;;4974920;28;20474;-72
2023/08/03 02:54:05;;;;;;;3.00;2.30;;;20.70;98.90;;;;;;4984012;28;20450;-72
2023/08/03 02:56:35;;;;;;;3.03;2.50;;;20.70;99.00;;;;;;4970626;28;20448;-72
2023/08/03 02:59:02;;;;;;;4.83;2.50;;;20.70;99.00;;;;;;4974749;28;21135;-72
2023/08/03 03:01:38;;;;;;;2.37;2.17;;;20.70;98.90;;;;;;4959579;28;20451;-72
2023/08/03 03:04:08;;;;;;;2.83;2.27;;;20.70;98.90;;;;;;4951454;28;20557;-72
2023/08/03 03:06:39;;;;;;;4.57;2.47;;;20.70;98.90;;;;;;4986442;28;20553;-72
2023/08/03 03:09:19;;;;;;;2.90;2.70;;;20.60;98.90;;;;;;4958774;28;20431;-72
2023/08/03 03:11:55;;;;;;;3.23;2.70;;;20.60;98.80;;;;;;4974423;28;20414;-72
2023/08/03 03:14:25;;;;;;;3.77;2.37;;;20.70;98.90;;;;;;4985712;28;20427;-72
2023/08/03 03:16:51;;;;;;;4.07;2.63;;;20.60;98.80;;;;;;4984970;28;20485;-72
2023/08/03 03:19:19;;;;;;;3.87;3.00;;;20.60;98.80;;;;;;4974288;28;20485;-72
2023/08/03 03:21:45;;;;;;;2.60;2.40;;;20.60;98.80;;;;;;4958517;28;20497;-72
2023/08/03 03:24:11;;;;;;;4.73;2.43;;;20.60;98.70;;;;;;4983170;28;20460;-72
2023/08/03 03:26:40;;;;;;;2.50;2.30;;;20.60;98.80;;;;;;5003785;28;20413;-72
2023/08/03 03:29:06;;;;;;;5.07;2.30;;;20.60;98.70;;;;;;4974150;28;20444;-72
2023/08/03 03:31:34;;;;;;;3.33;2.40;;;20.60;98.70;;;;;;4974229;28;20767;-72
2023/08/03 03:34:07;;;;;;;3.60;2.80;;;20.60;98.60;;;;;;4978325;28;20554;-72
2023/08/03 03:36:36;;;;;;;3.20;2.57;;;20.60;98.60;;;;;;4971084;28;20428;-72
2023/08/03 03:39:02;;;;;;;3.33;2.53;;;20.60;98.60;;;;;;4973709;28;20470;-72
2023/08/03 03:41:28;;;;;;;3.97;2.33;;;20.60;98.60;;;;;;4957933;28;20465;-72
2023/08/03 03:43:56;;;;;;;3.87;2.67;;;20.60;98.60;;;;;;4977148;28;20463;-72
2023/08/03 03:46:22;;;;;;;4.47;3.40;;;20.60;98.50;;;;;;4973430;28;20437;-72
2023/08/03 03:48:48;;;;;;;4.43;2.50;;;20.60;98.50;;;;;;4973601;28;20453;-72
2023/08/03 03:51:19;;;;;;;2.53;2.30;;;20.60;98.50;;;;;;4973331;28;20831;-72
2023/08/03 03:53:50;;;;;;;3.63;2.47;;;20.60;98.50;;;;;;4976092;28;20438;-72
2023/08/03 03:56:16;;;;;;;2.50;2.30;;;20.50;98.50;;;;;;4969457;28;20878;-72
2023/08/03 03:58:41;;;;;;;2.90;2.23;;;20.50;98.40;;;;;;4955804;28;20248;-72
2023/08/03 04:01:08;;;;;;;3.83;2.67;;;20.50;98.40;;;;;;4973657;28;20451;-72
2023/08/03 04:03:34;;;;;;;4.00;2.50;;;20.60;98.50;;;;;;4957635;28;20545;-72
2023/08/03 04:06:06;;;;;;;3.10;2.33;;;20.50;98.40;;;;;;4971260;28;20436;-72
2023/08/03 04:08:35;;;;;;;6.03;2.40;;;20.60;98.50;;;;;;4973212;28;20546;-72
2023/08/03 04:11:01;;;;;;;3.97;2.60;;;20.60;98.50;;;;;;4972855;28;20582;-72
2023/08/03 04:13:31;;;;;;;3.63;2.80;;;20.50;98.40;;;;;;4955990;28;20438;-72
2023/08/03 04:15:58;;;;;;;2.87;2.50;;;20.50;98.40;;;;;;4971094;28;20430;-72
2023/08/03 04:18:24;;;;;;;4.37;2.60;;;20.50;98.40;;;;;;4971508;28;21138;-72
2023/08/03 04:20:50;;;;;;;4.20;2.67;;;20.50;98.40;;;;;;4970669;28;20443;-72
2023/08/03 04:23:19;;;;;;;2.60;2.37;;;20.50;98.40;;;;;;4955980;28;20912;-72
2023/08/03 04:25:45;;;;;;;3.10;2.90;;;20.50;98.30;;;;;;4970479;28;20804;-72
2023/08/03 04:28:18;;;;;;;2.70;2.43;;;20.50;98.30;;;;;;4982091;28;20812;-74
2023/08/03 04:30:46;;;;;;;2.40;2.30;;;20.50;98.30;;;;;;4990717;28;20446;-72
2023/08/03 04:33:12;;;;;;;3.60;2.73;;;20.50;98.30;;;;;;4988926;28;20767;-74
2023/08/03 04:35:42;;;;;;;3.10;2.90;;;20.50;98.40;;;;;;4975112;28;20504;-80
2023/08/03 04:38:13;;;;;;;2.67;2.50;;;20.50;98.30;;;;;;4979359;28;20443;-79
2023/08/03 04:40:45;;;;;;;2.77;2.40;;;20.40;98.20;;;;;;4992329;28;20460;-81
2023/08/03 04:43:12;;;;;;;3.73;2.77;;;20.40;98.20;;;;;;4974928;28;21026;-80
2023/08/03 04:45:38;;;;;;;2.97;2.67;;;20.50;98.30;;;;;;4963148;28;20435;-79
2023/08/03 04:48:04;;;;;;;2.67;2.57;;;20.50;98.30;;;;;;4978289;28;20408;-80
2023/08/03 04:50:32;;;;;;;2.73;2.33;;;20.40;98.30;;;;;;4977907;28;20443;-78
2023/08/03 04:52:58;;;;;;;5.80;3.00;;;20.40;98.30;;;;;;4994905;28;20912;-80
2023/08/03 04:55:24;;;;;;;2.70;2.50;;;20.40;98.30;;;;;;4979030;28;20453;-78
2023/08/03 04:57:50;;;;;;;2.57;2.33;;;20.40;98.30;;;;;;4978448;28;20418;-77
2023/08/03 05:00:21;;;;;;;3.10;2.70;;;20.40;98.30;;;;;;4978387;28;20535;-77
2023/08/03 05:02:47;;;;;;;3.10;2.80;;;20.40;98.30;;;;;;5011192;28;20449;-78
2023/08/03 05:05:13;;;;;;;2.33;2.23;;;20.40;98.30;;;;;;4995974;28;20400;-78
2023/08/03 05:07:39;;;;;;;3.10;2.90;;;20.40;98.30;;;;;;4962619;28;20849;-77
2023/08/03 05:10:08;;;;;;;3.80;3.47;;;20.40;98.30;;;;;;4976830;28;20470;-78
2023/08/03 05:12:38;;;;;;;4.27;2.83;;;20.40;98.20;;;;;;4982023;28;20412;-78
2023/08/03 05:15:05;;;;;;;3.27;2.90;;;20.40;98.30;;;;;;4979714;28;20437;-78
2023/08/03 05:17:31;;;;;;;2.90;2.70;;;20.40;98.20;;;;;;4962854;28;20977;-77
2023/08/03 05:19:57;;;;;;;2.23;2.13;;;20.40;98.20;;;;;;4978451;28;20981;-78
2023/08/03 05:22:23;;;;;;;2.90;2.70;;;20.40;98.20;;;;;;4977905;28;20437;-80
2023/08/03 05:24:49;;;;;;;2.70;2.60;;;20.40;98.20;;;;;;4962643;28;20188;-79
2023/08/03 05:27:17;;;;;;;2.90;2.60;;;20.40;98.20;;;;;;4997999;28;20514;-80
2023/08/03 05:29:46;;;;;;;2.87;2.30;;;20.40;98.20;;;;;;4987599;28;20454;-78
2023/08/03 05:32:12;;;;;;;2.37;2.17;;;20.40;98.20;;;;;;4996012;28;20850;-78
2023/08/03 05:34:38;;;;;;;2.50;2.30;;;20.40;98.20;;;;;;4995767;28;20497;-78
2023/08/03 05:37:04;;;;;;;2.63;2.43;;;20.40;98.20;;;;;;5012271;28;20430;-78
2023/08/03 05:39:37;;;;;;;2.60;2.40;;;20.40;98.20;;;;;;4969171;28;20451;-76
2023/08/03 05:42:11;;;;;;;3.23;2.20;;;20.40;98.30;;;;;;4975042;28;20472;-79
2023/08/03 05:44:37;;;;;;;2.50;2.30;;;20.40;98.30;;;;;;4958953;28;20415;-77
2023/08/03 05:47:04;;;;;;;2.80;2.30;;;20.40;98.30;;;;;;4994839;28;21049;-78
2023/08/03 05:49:30;;;;;;;2.23;2.03;;;20.40;98.40;;;;;;4972951;28;20522;-77
2023/08/03 05:51:59;;;;;;;2.43;2.20;;;20.40;98.50;;;;;;4997964;28;21028;-77
2023/08/03 05:54:30;;;;;;;2.40;2.30;;;20.40;98.50;;;;;;4969159;28;20439;-78
2023/08/03 05:56:56;;;;;;;2.63;2.30;;;20.30;98.50;;;;;;4979807;28;20444;-79
2023/08/03 05:59:27;;;;;;;2.20;2.10;;;20.40;98.60;;;;;;4989922;28;21038;-78
2023/08/03 06:01:55;;;;;;;2.90;2.37;;;20.30;98.60;;;;;;4995486;28;20444;-77
2023/08/03 06:04:24;;;;;;;2.70;2.50;;;20.30;98.60;;;;;;4964559;28;20554;-77
2023/08/03 06:06:50;;;;;;;2.67;2.40;;;20.30;98.70;;;;;;4994266;28;20497;-80
2023/08/03 06:09:19;;;;;;;2.30;2.20;;;20.30;98.80;;;;;;4960997;28;20594;-77
2023/08/03 06:11:45;;;;;;;2.67;2.47;;;20.30;98.80;;;;;;4962220;28;20535;-79
2023/08/03 06:14:15;;;;;;;2.80;2.60;;;20.30;98.80;;;;;;4960848;28;20469;-81
2023/08/03 06:16:44;;;;;;;2.90;2.70;;;20.30;98.90;;;;;;4962013;28;20434;-80
2023/08/03 06:19:13;;;;;;;2.73;2.53;;;20.30;98.90;;;;;;4977912;28;20519;-79
2023/08/03 06:21:43;;;;;;;2.40;2.20;;;20.30;98.90;;;;;;4960848;28;20453;-77
2023/08/03 06:24:09;;;;;;;3.17;2.87;;;20.30;98.90;;;;;;4975821;28;20567;-77
2023/08/03 06:26:37;;;;;;;2.70;2.50;;;20.30;99.00;;;;;;4974789;28;20482;-77
2023/08/03 06:29:05;;;;;;;2.77;2.50;;;20.30;99.00;;;;;;4957173;28;20468;-77
2023/08/03 06:31:40;;;;;;;3.40;2.40;;;20.30;99.10;;;;;;4987327;28;20580;-77
2023/08/03 06:34:12;;;;;;;2.93;2.50;;;20.30;99.10;;;;;;4972383;28;20582;-76
2023/08/03 06:36:43;;;;;;;2.47;2.27;;;20.30;99.20;;;;;;4954908;28;20800;-76
2023/08/03 06:39:15;;;;;;;3.50;2.40;;;20.30;99.30;;;;;;4954640;28;20909;-76
2023/08/03 06:41:44;;;;;;;2.80;2.33;;;20.30;99.30;;;;;;4939265;28;20506;-76
2023/08/03 06:44:17;;;;;;;2.43;2.30;;;20.20;99.50;;;;;;4954752;28;20442;-77
2023/08/03 06:46:43;;;;;;;3.53;2.93;;;20.20;99.60;;;;;;4954332;28;20882;-76
2023/08/03 06:49:09;;;;;;;2.70;2.50;;;20.20;99.60;;;;;;4938665;28;20425;-76
2023/08/03 06:51:36;;;;;;;2.50;2.30;;;20.20;99.60;;;;;;4938913;28;20415;-77
2023/08/03 06:54:05;;;;;;;3.70;2.50;;;20.20;99.60;;;;;;4971944;28;20859;-76
2023/08/03 06:56:36;;;;;;;2.50;2.30;;;20.20;99.60;;;;;;4954902;28;20433;-76
2023/08/03 06:59:02;;;;;;;2.33;2.13;;;20.20;99.70;;;;;;4954204;28;20789;-76
2023/08/03 07:01:28;;;;;;;2.60;2.37;;;20.20;99.80;;;;;;4938651;28;20923;-77
2023/08/03 07:03:57;;;;;;;2.60;2.40;;;20.20;99.80;;;;;;4954104;28;20505;-76
2023/08/03 07:06:25;;;;;;;4.37;2.40;;;20.20;99.80;;;;;;4954657;28;20461;-77
2023/08/03 07:08:51;;;;;;;2.43;2.30;;;20.20;99.90;;;;;;4954729;28;20428;-76
2023/08/03 07:11:17;;;;;;;2.60;2.40;;;20.20;99.90;;;;;;4938580;28;20539;-78
2023/08/03 07:13:43;;;;;;;2.70;2.50;;;20.20;99.90;;;;;;4971745;28;20262;-77
2023/08/03 07:16:09;;;;;;;3.00;2.80;;;20.20;99.90;;;;;;4971757;28;20773;-78
2023/08/03 07:18:40;;;;;;;3.20;2.40;;;20.20;99.90;;;;;;4954278;28;20416;-77
2023/08/03 07:21:06;;;;;;;2.63;2.43;;;20.20;99.90;;;;;;4956096;28;20489;-77
2023/08/03 07:23:34;;;;;;;3.23;3.07;;;20.20;99.90;;;;;;4975937;28;20466;-76
2023/08/03 07:26:02;;;;;;;2.87;2.67;;;20.20;99.90;;;;;;4992811;28;20465;-77
2023/08/03 07:28:31;;;;;;;2.73;2.50;;;20.20;99.90;;;;;;4977295;28;20426;-77
2023/08/03 07:30:58;;;;;;;2.50;2.30;;;20.20;99.90;;;;;;4993148;28;20456;-77
2023/08/03 07:33:24;;;;;;;2.90;2.70;;;20.20;99.90;;;;;;5010876;28;20418;-76
2023/08/03 07:35:50;;;;;;;3.00;2.40;;;20.20;99.90;;;;;;4993377;28;20562;-77
2023/08/03 07:38:16;;;;;;;2.53;2.33;;;20.20;99.90;;;;;;5010503;28;20788;-77
2023/08/03 07:40:43;;;;;;;2.67;2.27;;;20.20;99.90;;;;;;4977076;28;20538;-77
2023/08/03 07:43:09;;;;;;;2.50;2.30;;;20.10;99.90;;;;;;4976485;28;20476;-77
2023/08/03 07:45:40;;;;;;;2.77;2.57;;;20.10;99.90;;;;;;4977078;28;20418;-77
2023/08/03 07:48:06;;;;;;;2.20;2.10;;;20.10;99.90;;;;;;4992998;28;20481;-77
2023/08/03 07:50:32;;;;;;;2.87;2.67;;;20.20;99.90;;;;;;4976595;28;20518;-77
2023/08/03 07:52:58;;;;;;;2.60;2.40;;;20.20;99.90;;;;;;5010431;28;20844;-77
2023/08/03 07:55:24;;;;;;;2.70;2.50;;;20.20;99.90;;;;;;4992600;28;20406;-77
2023/08/03 07:57:50;;;;;;;2.90;2.73;;;20.20;99.90;;;;;;5010879;28;20730;-77
2023/08/03 08:00:16;;;;;;;3.00;2.80;;;20.20;99.90;;;;;;4976633;28;20457;-76
2023/08/03 08:02:42;;;;;;;2.53;2.33;;;20.10;99.90;;;;;;4992552;28;20487;-77
2023/08/03 08:05:11;;;;;;;3.10;2.90;;;20.20;99.90;;;;;;4992863;28;20418;-77
2023/08/03 08:07:39;;;;;;;2.50;2.30;;;20.20;99.90;;;;;;4976445;28;20430;-77
2023/08/03 08:10:12;;;;;;;2.60;2.40;;;20.20;99.90;;;;;;4992283;28;20944;-76
2023/08/03 08:12:38;;;;;;;3.30;2.73;;;20.20;99.90;;;;;;4992587;28;20474;-77
2023/08/03 08:15:07;;;;;;;3.50;3.20;;;20.20;99.90;;;;;;4992191;28;20914;-76
2023/08/03 08:17:33;;;;;;;3.90;2.70;;;20.20;99.90;;;;;;5011299;28;20450;-77
2023/08/03 08:19:59;;;;;;;2.20;2.10;;;20.20;99.90;;;;;;4992584;28;20462;-77
2023/08/03 08:22:28;;;;;;;2.70;2.50;;;20.20;99.90;;;;;;4976440;28;20461;-76
2023/08/03 08:24:56;;;;;;;3.40;2.53;;;20.20;99.90;;;;;;4976560;28;20439;-76
2023/08/03 08:27:22;;;;;;;2.63;2.43;;;20.20;99.90;;;;;;4992340;28;20910;-76
2023/08/03 08:29:48;;;;;;;2.63;2.40;;;20.20;99.90;;;;;;4976385;28;20730;-76
2023/08/03 08:32:19;;;;;;;2.73;2.53;;;20.20;99.90;;;;;;4992521;28;20428;-76
2023/08/03 08:34:45;;;;;;;3.90;3.60;;;20.20;99.90;;;;;;4992437;28;20469;-76
2023/08/03 08:37:11;;;;;;;2.53;2.30;;;20.20;99.90;;;;;;4976154;28;20414;-76
2023/08/03 08:39:44;;;;;;;2.70;2.43;;;20.20;99.90;;;;;;4995983;28;20921;-77
2023/08/03 08:42:11;;;;;;;2.80;2.60;;;20.20;99.90;;;;;;4996242;28;20509;-76
2023/08/03 08:44:38;;;;;;;3.30;2.57;;;20.20;99.90;;;;;;5013730;28;20990;-76
2023/08/03 08:47:04;;;;;;;2.93;2.50;;;20.20;99.90;;;;;;5013660;28;20406;-76
2023/08/03 08:49:31;;;;;;;3.07;2.40;;;20.20;99.90;;;;;;4980431;28;20512;-76
2023/08/03 08:51:59;;;;;;;4.80;2.80;;;20.20;99.90;;;;;;5013566;28;20405;-76
2023/08/03 08:54:32;;;;;;;3.10;2.90;;;20.30;99.90;;;;;;4995739;28;21135;-76
2023/08/03 08:56:58;;;;;;;3.43;2.80;;;20.30;99.90;;;;;;4996028;28;20508;-76
2023/08/03 08:59:27;;;;;;;3.07;2.87;;;20.20;99.90;;;;;;4995755;28;20514;-76
2023/08/03 09:01:55;;;;;;;2.70;2.37;;;20.30;99.90;;;;;;4995973;28;21015;-76
2023/08/03 09:04:33;;;;;;;3.70;2.67;;;20.30;99.90;;;;;;4979409;28;20560;-76
2023/08/03 09:06:59;;;;;;;2.97;2.77;;;20.30;99.90;;;;;;5011843;28;20440;-77
2023/08/03 09:09:32;;;;;;;2.80;2.60;;;20.20;99.90;;;;;;5013349;28;20441;-76
2023/08/03 09:12:01;;;;;;;2.83;2.50;;;20.20;99.90;;;;;;4995451;28;20796;-76
2023/08/03 09:14:27;;;;;;;3.20;2.97;;;20.20;99.90;;;;;;4979400;28;20426;-76
2023/08/03 09:16:53;;;;;;;3.03;2.80;;;20.30;99.90;;;;;;4995512;28;20936;-76
2023/08/03 09:19:35;;;;;;;3.03;2.73;;;20.20;99.90;;;;;;4979107;28;20488;-77
2023/08/03 09:22:02;;;;;;;2.90;2.60;;;20.30;99.90;;;;;;4979226;28;20820;-76
2023/08/03 09:24:30;;;;;;;3.00;2.80;;;20.30;99.90;;;;;;4995777;28;20462;-76
2023/08/03 09:26:59;;;;;;;3.40;2.70;;;20.30;99.90;;;;;;4979436;28;20786;-76
2023/08/03 09:29:32;;;;;;;3.30;2.70;;;20.30;99.90;;;;;;4979779;28;20449;-76
2023/08/03 09:32:05;;;;;;;2.30;2.20;;;20.30;99.90;;;;;;4995161;28;20514;-76
2023/08/03 09:34:44;;;;;;;3.43;2.70;;;20.30;99.90;;;;;;4979942;28;20440;-76
2023/08/03 09:37:14;;;;;;;3.17;2.87;;;20.30;99.90;;;;;;5013316;28;20398;-76
2023/08/03 09:39:53;;;;;;;3.70;2.80;;;20.30;99.90;;;;;;5013481;28;20443;-77
2023/08/03 09:42:23;;;;;;;3.40;2.90;;;20.30;99.90;;;;;;4995074;28;20434;-76
2023/08/03 09:44:53;;;;;;;3.67;3.40;;;20.30;99.90;;;;;;4978849;28;20833;-75
2023/08/03 09:47:19;;;;;;;4.70;2.50;;;20.30;99.90;;;;;;5013013;28;20916;-76
2023/08/03 09:49:50;;;;;;;3.00;2.80;;;20.30;99.90;;;;;;4994614;28;20453;-76
2023/08/03 09:52:28;;;;;;;2.70;2.50;;;20.30;99.90;;;;;;4994543;28;20435;-76
2023/08/03 09:55:18;;;;;;;3.43;2.90;;;20.40;99.90;;;;;;5010632;28;20417;-76
2023/08/03 09:58:06;;;;;;;4.90;3.23;;;20.30;99.90;;;;;;4978247;28;21017;-76
2023/08/03 10:00:33;;;;;;;3.67;2.83;;;20.30;99.90;;;;;;4978952;28;20478;-76
2023/08/03 10:03:12;;;;;;;4.33;2.90;;;20.30;99.90;;;;;;4995484;28;20459;-76
2023/08/03 10:05:52;;;;;;;3.23;3.03;;;20.40;99.90;;;;;;5012926;28;20445;-76
2023/08/03 10:08:36;;;;;;;3.97;3.30;;;20.40;99.90;;;;;;4994347;28;20500;-76
2023/08/03 10:11:09;;;;;;;3.70;2.73;;;20.40;99.90;;;;;;4994329;28;20549;-76
2023/08/03 10:13:40;;;;;;;4.93;2.53;;;20.40;99.90;;;;;;4992494;28;20439;-76
2023/08/03 10:16:09;;;;;;;3.03;2.70;;;20.40;99.90;;;;;;4993973;28;20536;-76
2023/08/03 10:18:36;;;;;;;3.27;2.90;;;20.40;99.90;;;;;;4994043;28;20445;-75
2023/08/03 10:21:03;;;;;;;6.70;2.97;;;20.40;99.90;;;;;;4976395;28;20439;-76
2023/08/03 10:23:31;;;;;;;3.43;3.17;;;20.40;99.90;;;;;;4993894;28;20915;-77
2023/08/03 10:26:01;;;;;;;3.17;2.97;;;20.40;99.90;;;;;;4978001;28;20909;-76
2023/08/03 10:28:39;;;;;;;3.30;3.00;;;20.40;99.90;;;;;;4977852;28;20432;-76
2023/08/03 10:31:17;;;;;;;3.57;3.27;;;20.40;99.90;;;;;;4993885;28;20450;-76
2023/08/03 10:33:51;;;;;;;2.93;2.60;;;20.40;99.90;;;;;;4978777;28;20417;-76
2023/08/03 10:36:29;;;;;;;3.17;2.97;;;20.40;99.90;;;;;;5011855;28;20448;-76
2023/08/03 10:39:00;;;;;;;3.17;2.97;;;20.40;99.90;;;;;;4994196;28;20438;-76
2023/08/03 10:41:30;;;;;;;3.90;3.00;;;20.40;99.90;;;;;;5011700;28;20910;-77
2023/08/03 10:44:12;;;;;;;3.80;3.40;;;20.40;99.90;;;;;;4993306;28;20489;-76
2023/08/03 10:46:42;;;;;;;3.70;3.30;;;20.40;99.90;;;;;;4993497;28;20486;-75
2023/08/03 10:52:17;;;;;;;5.13;3.80;;;20.50;99.90;;;;;;4982534;28;20472;-81
2023/08/03 10:54:46;;;;;;;4.53;3.23;;;20.40;99.90;;;;;;4971650;28;21069;-77
2023/08/03 10:57:19;;;;;;;4.33;3.33;;;20.40;99.90;;;;;;4955565;28;20906;-77
2023/08/03 10:59:52;;;;;;;4.73;2.67;;;20.50;99.90;;;;;;4961541;28;20455;-76
2023/08/03 11:02:19;;;;;;;3.87;3.57;;;20.50;99.90;;;;;;4974337;28;20439;-77
2023/08/03 11:05:00;;;;;;;4.07;3.10;;;20.50;99.90;;;;;;4992087;28;20606;-77
2023/08/03 11:07:37;;;;;;;4.07;3.33;;;20.50;99.90;;;;;;4991394;28;20826;-76
2023/08/03 11:10:10;;;;;;;3.57;2.93;;;20.50;99.90;;;;;;4991515;28;20529;-78
2023/08/03 11:12:37;;;;;;;4.30;3.50;;;20.50;99.90;;;;;;4964994;28;20431;-75
2023/08/03 11:15:09;;;;;;;3.70;2.90;;;20.50;99.90;;;;;;4989592;28;20495;-75
2023/08/03 11:17:41;;;;;;;6.13;3.37;;;20.50;99.90;;;;;;4991428;28;20464;-75
2023/08/03 11:20:13;;;;;;;2.67;2.47;;;20.50;99.90;;;;;;4973548;28;21017;-75
2023/08/03 11:22:44;;;;;;;3.70;2.53;;;20.50;99.90;;;;;;4973353;28;20435;-75
2023/08/03 11:25:12;;;;;;;3.20;2.50;;;20.50;99.90;;;;;;4990431;28;20495;-74
2023/08/03 11:27:42;;;;;;;4.27;2.70;;;20.50;99.90;;;;;;4985694;28;20464;-74
2023/08/03 11:30:08;;;;;;;3.03;2.73;;;20.50;99.90;;;;;;4953617;28;20487;-75
2023/08/03 11:32:34;;;;;;;4.53;2.97;;;20.50;99.90;;;;;;4970912;28;20499;-75
2023/08/03 11:35:05;;;;;;;3.10;2.90;;;20.50;99.90;;;;;;4969452;28;20578;-75
2023/08/03 11:37:37;;;;;;;3.67;2.80;;;20.50;99.90;;;;;;4969516;28;20416;-75
2023/08/03 11:40:05;;;;;;;3.93;2.60;;;20.50;99.90;;;;;;4970573;28;20539;-75
2023/08/03 11:42:38;;;;;;;3.00;2.80;;;20.50;99.90;;;;;;4970385;28;20439;-76
2023/08/03 11:45:10;;;;;;;4.07;3.03;;;20.60;99.90;;;;;;4980999;28;20423;-75
2023/08/03 11:47:50;;;;;;;3.30;2.70;;;20.60;99.90;;;;;;4990674;28;20502;-75
2023/08/03 11:50:21;;;;;;;3.00;2.80;;;20.60;99.90;;;;;;4968457;28;20456;-75
2023/08/03 11:52:49;;;;;;;4.13;3.20;;;20.60;99.90;;;;;;4971167;28;20530;-75
2023/08/03 11:55:30;;;;;;;2.80;2.50;;;20.60;99.90;;;;;;4971277;28;20434;-75
2023/08/03 11:58:10;;;;;;;3.20;2.93;;;20.60;99.90;;;;;;4970875;28;20448;-75
2023/08/03 12:00:39;;;;;;;3.50;2.67;;;20.60;99.90;;;;;;4969724;28;20439;-75
2023/08/03 12:03:06;;;;;;;2.97;2.77;;;20.60;99.90;;;;;;4969653;28;20475;-75
2023/08/03 12:05:57;;;;;;;2.80;2.60;;;20.60;99.90;;;;;;4971057;28;20528;-75
2023/08/03 12:08:23;;;;;;;3.00;2.70;;;20.60;99.90;;;;;;4952883;28;20426;-75
2023/08/03 12:11:02;;;;;;;3.20;2.90;;;20.70;99.90;;;;;;4969755;28;20855;-75
2023/08/03 12:13:30;;;;;;;3.07;2.83;;;20.70;99.90;;;;;;4968698;28;20432;-75
2023/08/03 12:15:56;;;;;;;3.13;2.93;;;20.70;99.90;;;;;;4970760;28;20412;-75
2023/08/03 12:18:28;;;;;;;2.83;2.63;;;20.70;99.90;;;;;;4970949;28;20412;-75
2023/08/03 12:20:54;;;;;;;3.00;2.80;;;20.70;99.90;;;;;;4958085;28;20460;-75
2023/08/03 12:23:21;;;;;;;3.00;2.63;;;20.70;99.90;;;;;;4947365;28;20457;-75
2023/08/03 12:25:48;;;;;;;4.27;3.07;;;20.70;99.90;;;;;;4962124;28;20604;-75
2023/08/03 12:28:14;;;;;;;3.30;3.10;;;20.80;99.90;;;;;;4957072;28;20487;-75
2023/08/03 12:30:41;;;;;;;2.90;2.70;;;20.80;99.90;;;;;;4956185;28;20462;-75
2023/08/03 12:33:10;;;;;;;2.83;2.63;;;20.80;99.90;;;;;;4949467;28;20462;-75
2023/08/03 12:35:36;;;;;;;3.30;3.10;;;20.80;99.90;;;;;;4953307;28;20448;-75
2023/08/03 12:38:02;;;;;;;2.57;2.40;;;20.80;99.90;;;;;;4953915;28;20440;-75
2023/08/03 12:40:28;;;;;;;3.30;3.07;;;20.80;99.90;;;;;;4965299;28;20933;-75
2023/08/03 12:42:57;;;;;;;5.77;2.93;;;20.80;99.90;;;;;;4967325;28;20969;-75
2023/08/03 12:45:26;;;;;;;3.47;3.17;;;20.80;99.90;;;;;;4956418;28;20459;-75
2023/08/03 12:47:55;;;;;;;3.33;3.03;;;20.80;99.90;;;;;;4953774;28;20485;-75
2023/08/03 12:50:23;;;;;;;3.37;2.70;;;20.80;99.90;;;;;;4967766;28;20570;-75
2023/08/03 12:52:52;;;;;;;3.33;3.00;;;20.80;99.90;;;;;;4985795;28;20453;-75
2023/08/03 12:55:19;;;;;;;3.10;2.80;;;20.80;99.90;;;;;;4980515;28;20936;-75
2023/08/03 12:57:45;;;;;;;2.80;2.60;;;20.80;99.90;;;;;;4985501;28;20443;-75
2023/08/03 13:00:13;;;;;;;2.43;2.33;;;20.80;99.90;;;;;;4971496;28;20507;-75